Kaohsiung International Airport
RCKH : now visible

Airfield :











YOU CAN JOIN US ON...

 
LOGIN :

Register | Disclaimer

   EN    FR    IT 

 









Legend :    VFR   Marginal VFR   IFR   Intensive IFR   Very Intensive IFR
Visi :
Ceiling :
>= 8 km
>= 3000ft
5 to 8 km
1000 to 3000 ft
1500m to 5 km
500 to 1000 ft
800 to 1500m
200 to 500 ft
< 800m
< 200 ft
Symbols :   Thunderstorms  Fog  Heavy snow  Heavy precipitations  Wind > 20 kt







- Airport Elevation : 31 ft
- IATA code : KHH


RCKH - Kaohsiung International

CURRENT METAR :
  • 191430Z 35003KT 310V040 6000 FEW016 25/20 Q1015 NOSIG RMK A2998

EXPIRED METARs :
  • 191400Z VRB03KT 8000 FEW016 25/21 Q1015 NOSIG RMK A2998
  • 191330Z 32004KT 280V340 8000 FEW016 25/21 Q1015 NOSIG RMK A2998
  • 191300Z 32004KT 280V340 7000 FEW016 25/21 Q1015 NOSIG RMK A2998
  • 191230Z 29004KT 8000 FEW016 25/21 Q1014 NOSIG RMK A2997
  • 191200Z 29004KT 260V320 7000 FEW016 25/21 Q1014 NOSIG RMK A2996

TAF TAF RCKH
Valid from the 19 at 12:00 until the 20 at 18:00 UTC


191100Z 1912/2018 35005KT 6000 FEW015 BKN032
TEMPO 1912/1916 4000 HZ
BECMG 1916/1918 3500 BR
TEMPO 1920/2001 03005KT 2500 BR FEW012 BKN022
BECMG 2001/2003 29006KT 6000 NSW
BECMG 2006/2008 17012KT
RCAA FIR / Asia



MET'MAP, your aeronautical weather chart ! - Copyright ORBIFLY December 2007 - Disclaimer

ORBIFLY MET'MAP TEAM :

Programming & Development : Alexandra Zaïnal
Concept & Development : Baudouin d'Aumeries
Co-Development & Prog : Marc-Olivier Méhu
Technical & hardware support : Manuel Goepfert

Contact : metmap@orbifly.com




SOURCES & CREDITS :

   NOAA       Earth
Advisory